createdAt,value
2023-04-01T00:01:40.577Z,11.40
2023-04-01T00:04:07.257Z,10.05
2023-04-01T00:06:33.861Z,11.82
2023-04-01T00:09:00.536Z,10.20
2023-04-01T00:11:28.339Z,10.70
2023-04-01T00:13:55.025Z,9.77
2023-04-01T00:16:22.770Z,9.13
2023-04-01T00:18:49.503Z,8.93
2023-04-01T00:21:16.211Z,10.48
2023-04-01T00:23:43.003Z,10.65
2023-04-01T00:26:09.715Z,10.15
2023-04-01T00:28:37.046Z,8.60
2023-04-01T00:31:03.700Z,9.65
2023-04-01T00:33:31.459Z,8.98
2023-04-01T00:35:58.035Z,8.05
2023-04-01T00:38:24.625Z,9.13
2023-04-01T00:40:52.127Z,10.65
2023-04-01T00:43:22.030Z,8.10
2023-04-01T00:45:48.804Z,10.40
2023-04-01T00:48:15.511Z,10.73
2023-04-01T00:50:42.213Z,8.88
2023-04-01T00:53:08.789Z,8.57
2023-04-01T00:55:35.386Z,8.43
2023-04-01T00:58:02.047Z,10.95
2023-04-01T01:00:28.636Z,9.70
2023-04-01T01:02:55.628Z,8.70
2023-04-01T01:05:22.653Z,9.93
2023-04-01T01:07:49.343Z,10.27
2023-04-01T01:10:16.150Z,9.52
2023-04-01T01:12:42.823Z,10.90
2023-04-01T01:15:09.406Z,7.88
2023-04-01T01:17:36.090Z,10.18
2023-04-01T01:20:02.950Z,10.63
2023-04-01T01:22:29.887Z,8.38
2023-04-01T01:24:56.533Z,8.38
2023-04-01T01:27:23.109Z,10.40
2023-04-01T01:29:49.793Z,10.57
2023-04-01T01:32:16.682Z,9.45
2023-04-01T01:34:43.382Z,9.77
2023-04-01T01:37:09.941Z,8.63
2023-04-01T01:39:36.616Z,10.43
2023-04-01T01:42:03.206Z,9.27
2023-04-01T01:44:29.793Z,7.80
2023-04-01T01:46:56.356Z,5.72
2023-04-01T01:49:23.000Z,8.25
2023-04-01T01:51:49.556Z,3.72
2023-04-01T01:54:16.229Z,4.45
2023-04-01T01:56:42.825Z,4.07
2023-04-01T01:59:09.413Z,3.58
2023-04-01T02:01:36.228Z,3.22
2023-04-01T02:04:02.983Z,2.85
2023-04-01T02:06:29.638Z,4.47
2023-04-01T02:08:56.591Z,3.22
2023-04-01T02:11:23.492Z,3.60
2023-04-01T02:13:50.089Z,3.55
2023-04-01T02:16:17.175Z,4.35
2023-04-01T02:18:43.946Z,3.83
2023-04-01T02:21:10.777Z,3.35
2023-04-01T02:23:37.372Z,3.97
2023-04-01T02:26:04.019Z,3.10
2023-04-01T02:28:30.657Z,3.35
2023-04-01T02:30:57.235Z,3.88
2023-04-01T02:33:23.868Z,3.25
2023-04-01T02:35:50.506Z,3.95
2023-04-01T02:38:17.119Z,4.10
2023-04-01T02:40:43.720Z,3.17
2023-04-01T02:43:10.280Z,3.63
2023-04-01T02:45:36.891Z,4.13
2023-04-01T02:48:03.586Z,3.42
2023-04-01T02:50:30.237Z,4.05
2023-04-01T02:52:57.159Z,4.05
2023-04-01T02:55:23.782Z,2.97
2023-04-01T02:57:50.507Z,3.63
2023-04-01T03:00:17.140Z,4.40
2023-04-01T03:02:45.404Z,2.92
2023-04-01T03:05:12.061Z,3.42
2023-04-01T03:07:38.626Z,1.85
2023-04-01T03:10:05.231Z,2.78
2023-04-01T03:12:31.793Z,2.67
2023-04-01T03:14:58.412Z,2.88
2023-04-01T03:17:37.860Z,2.95
2023-04-01T03:20:05.968Z,3.17
2023-04-01T03:22:32.578Z,2.45
2023-04-01T03:24:59.270Z,3.55
2023-04-01T03:27:25.929Z,2.58
2023-04-01T03:29:52.559Z,2.92
2023-04-01T03:32:19.187Z,2.72
2023-04-01T03:34:45.816Z,2.45
2023-04-01T03:37:12.415Z,2.60
2023-04-01T03:39:39.017Z,2.15
2023-04-01T03:42:07.697Z,2.47
2023-04-01T03:44:34.289Z,2.95
2023-04-01T03:47:01.027Z,2.28
2023-04-01T03:49:27.657Z,3.15
2023-04-01T03:51:54.250Z,1.85
2023-04-01T03:54:21.269Z,2.60
2023-04-01T03:56:47.921Z,2.03
2023-04-01T03:59:14.532Z,2.05
2023-04-01T04:01:41.180Z,2.60
2023-04-01T04:04:07.879Z,2.63
2023-04-01T04:06:34.552Z,2.67
2023-04-01T04:09:01.180Z,3.22
2023-04-01T04:11:27.851Z,3.13
2023-04-01T04:13:56.065Z,2.97
2023-04-01T04:16:23.221Z,2.17
2023-04-01T04:18:49.953Z,2.42
2023-04-01T04:21:16.565Z,1.83
2023-04-01T04:23:43.231Z,2.05
2023-04-01T04:26:09.820Z,1.85
2023-04-01T04:28:36.454Z,1.30
2023-04-01T04:31:03.054Z,1.83
2023-04-01T04:33:29.709Z,1.45
2023-04-01T04:35:56.371Z,1.52
2023-04-01T04:38:22.978Z,1.60
2023-04-01T04:40:49.628Z,2.63
2023-04-01T04:43:16.283Z,2.88
2023-04-01T04:45:42.976Z,2.13
2023-04-01T04:48:09.760Z,2.00
2023-04-01T04:50:36.483Z,2.55
2023-04-01T04:53:03.112Z,2.20
2023-04-01T04:55:29.697Z,2.03
2023-04-01T04:57:56.570Z,2.58
2023-04-01T05:00:23.198Z,3.28
2023-04-01T05:02:49.940Z,1.98
2023-04-01T05:05:16.644Z,3.03
2023-04-01T05:07:43.269Z,3.15
2023-04-01T05:10:09.849Z,2.50
2023-04-01T05:12:39.908Z,2.50
2023-04-01T05:15:06.581Z,2.25
2023-04-01T05:17:33.291Z,2.20
2023-04-01T05:19:59.944Z,2.83
2023-04-01T05:22:26.596Z,2.42
2023-04-01T05:24:53.269Z,2.40
2023-04-01T05:27:19.881Z,1.70
2023-04-01T05:29:46.474Z,2.25
2023-04-01T05:32:13.053Z,2.97
2023-04-01T05:34:39.701Z,2.08
2023-04-01T05:37:06.511Z,2.38
2023-04-01T05:39:33.091Z,2.67
2023-04-01T05:41:59.692Z,3.53
2023-04-01T05:44:26.304Z,2.70
2023-04-01T05:46:52.895Z,3.35
2023-04-01T05:49:19.560Z,2.63
2023-04-01T05:51:46.144Z,2.67
2023-04-01T05:54:12.769Z,2.78
2023-04-01T05:56:39.414Z,2.00
2023-04-01T05:59:06.016Z,3.15
2023-04-01T06:01:32.672Z,2.38
2023-04-01T06:03:59.499Z,2.75
2023-04-01T06:06:26.201Z,3.05
2023-04-01T06:08:52.822Z,3.28
2023-04-01T06:11:19.469Z,2.95
2023-04-01T06:13:46.141Z,4.07
2023-04-01T06:16:12.842Z,3.53
2023-04-01T06:18:39.457Z,3.75
2023-04-01T06:21:06.126Z,3.08
2023-04-01T06:23:32.757Z,2.67
2023-04-01T06:25:59.411Z,2.83
2023-04-01T06:28:26.196Z,3.70
2023-04-01T06:30:52.804Z,2.80
2023-04-01T06:33:19.386Z,2.45
2023-04-01T06:35:46.118Z,3.38
2023-04-01T06:38:12.776Z,3.17
2023-04-01T06:40:39.398Z,3.28
2023-04-01T06:43:06.250Z,3.03
2023-04-01T06:45:33.157Z,2.72
2023-04-01T06:48:00.272Z,2.88
2023-04-01T06:50:27.052Z,3.28
2023-04-01T06:52:53.723Z,3.33
2023-04-01T06:55:22.418Z,4.75
2023-04-01T06:57:49.752Z,3.58
2023-04-01T07:00:16.415Z,3.60
2023-04-01T07:02:43.122Z,3.42
2023-04-01T07:05:09.821Z,4.30
2023-04-01T07:07:36.601Z,3.25
2023-04-01T07:10:03.619Z,2.92
2023-04-01T07:12:30.653Z,3.85
2023-04-01T07:14:57.849Z,5.03
2023-04-01T07:17:24.764Z,4.35
2023-04-01T07:19:51.997Z,3.70
2023-04-01T07:22:18.840Z,4.18
2023-04-01T07:24:45.917Z,3.97
2023-04-01T07:27:12.892Z,4.20
2023-04-01T07:29:39.531Z,4.82
2023-04-01T07:32:06.393Z,4.53
2023-04-01T07:34:33.034Z,4.10
2023-04-01T07:37:02.407Z,3.75
2023-04-01T07:39:29.316Z,4.63
2023-04-01T07:41:56.874Z,3.38
2023-04-01T07:44:24.069Z,4.43
2023-04-01T07:46:51.169Z,4.15
2023-04-01T07:49:17.975Z,4.65
2023-04-01T07:51:45.020Z,5.10
2023-04-01T07:54:12.061Z,4.93
2023-04-01T07:56:39.069Z,3.45
2023-04-01T07:59:06.188Z,4.50
2023-04-01T08:01:33.776Z,5.80
2023-04-01T08:04:00.941Z,4.25
2023-04-01T08:06:27.836Z,4.68
2023-04-01T08:08:55.117Z,4.75
2023-04-01T08:11:23.505Z,4.93
2023-04-01T08:13:50.600Z,5.00
2023-04-01T08:16:17.773Z,4.50
2023-04-01T08:18:44.714Z,5.40
2023-04-01T08:21:11.642Z,5.88
2023-04-01T08:23:38.445Z,6.28
2023-04-01T08:26:05.434Z,5.93
2023-04-01T08:28:32.568Z,6.45
2023-04-01T08:30:59.619Z,5.75
2023-04-01T08:33:26.692Z,6.50
2023-04-01T08:35:53.879Z,6.28
2023-04-01T08:38:21.183Z,5.90
2023-04-01T08:40:48.266Z,5.05
2023-04-01T08:43:15.156Z,5.63
2023-04-01T08:45:42.087Z,3.38
2023-04-01T08:48:09.865Z,5.38
2023-04-01T08:50:36.571Z,5.63
2023-04-01T08:53:04.678Z,5.93
2023-04-01T08:55:31.617Z,5.10
2023-04-01T08:57:58.475Z,5.43
2023-04-01T09:00:25.107Z,5.35
2023-04-01T09:02:51.908Z,6.38
2023-04-01T09:05:18.662Z,5.38
2023-04-01T09:07:45.365Z,6.55
2023-04-01T09:10:11.960Z,5.65
2023-04-01T09:12:38.704Z,4.57
2023-04-01T09:15:05.350Z,5.20
2023-04-01T09:17:32.128Z,4.03
2023-04-01T09:19:58.802Z,6.15
2023-04-01T09:22:25.440Z,5.05
2023-04-01T09:24:52.217Z,5.22
2023-04-01T09:27:18.785Z,4.07
2023-04-01T09:29:45.380Z,4.38
2023-04-01T09:32:12.216Z,5.13
2023-04-01T09:34:38.885Z,4.50
2023-04-01T09:37:05.604Z,4.28
2023-04-01T09:39:32.190Z,4.50
2023-04-01T09:41:58.772Z,4.45
2023-04-01T09:44:25.525Z,4.20
2023-04-01T09:46:52.108Z,5.00
2023-04-01T09:49:18.848Z,4.78
2023-04-01T09:51:45.538Z,3.38
2023-04-01T09:54:12.385Z,3.78
2023-04-01T09:56:39.232Z,4.53
2023-04-01T09:59:05.875Z,4.10
2023-04-01T10:01:32.560Z,6.07
2023-04-01T10:03:59.280Z,4.00
2023-04-01T10:06:26.013Z,5.03
2023-04-01T10:08:53.964Z,4.88
2023-04-01T10:11:20.703Z,7.25
2023-04-01T10:13:47.364Z,4.70
2023-04-01T10:16:14.095Z,5.18
2023-04-01T10:18:40.725Z,3.85
2023-04-01T10:21:08.078Z,4.07
2023-04-01T10:23:35.377Z,3.65
2023-04-01T10:26:02.029Z,3.40
2023-04-01T10:28:28.646Z,2.60
2023-04-01T10:30:55.413Z,3.42
2023-04-01T10:33:22.069Z,3.55
2023-04-01T10:35:48.683Z,3.08
2023-04-01T10:38:15.356Z,3.42
2023-04-01T10:40:41.997Z,3.00
2023-04-01T10:43:08.652Z,2.50
2023-04-01T10:45:35.642Z,3.38
2023-04-01T10:48:02.537Z,3.28
2023-04-01T10:50:29.208Z,2.58
2023-04-01T10:52:55.876Z,3.35
2023-04-01T10:55:22.539Z,3.95
2023-04-01T10:57:49.126Z,3.88
2023-04-01T11:00:15.968Z,4.40
2023-04-01T11:02:42.869Z,3.60
2023-04-01T11:05:10.999Z,4.47
2023-04-01T11:07:37.663Z,4.72
2023-04-01T11:10:04.278Z,4.25
2023-04-01T11:12:31.022Z,3.35
2023-04-01T11:14:57.593Z,5.45
2023-04-01T11:17:24.360Z,4.15
2023-04-01T11:19:50.991Z,4.32
2023-04-01T11:22:17.598Z,5.88
2023-04-01T11:24:44.256Z,5.00
2023-04-01T11:27:11.015Z,6.15
2023-04-01T11:29:42.230Z,5.53
2023-04-01T11:32:13.559Z,5.10
2023-04-01T11:34:40.203Z,6.35
2023-04-01T11:37:06.795Z,5.78
2023-04-01T11:39:33.432Z,5.47
2023-04-01T11:42:00.113Z,4.88
2023-04-01T11:44:28.280Z,6.13
2023-04-01T11:46:54.985Z,5.13
2023-04-01T11:49:21.629Z,5.00
2023-04-01T11:51:48.268Z,4.97
2023-04-01T11:54:14.891Z,5.80
2023-04-01T11:56:41.506Z,5.65
2023-04-01T11:59:08.226Z,5.10
2023-04-01T12:01:34.870Z,5.78
2023-04-01T12:04:01.910Z,7.03
2023-04-01T12:06:28.603Z,6.35
2023-04-01T12:08:55.807Z,6.57
2023-04-01T12:11:22.417Z,5.82
2023-04-01T12:13:49.006Z,5.38
2023-04-01T12:16:15.631Z,5.93
2023-04-01T12:18:42.308Z,4.82
2023-04-01T12:21:08.981Z,5.57
2023-04-01T12:23:35.817Z,3.97
2023-04-01T12:26:02.395Z,4.80
2023-04-01T12:28:29.027Z,3.72
2023-04-01T12:30:55.696Z,4.93
2023-04-01T12:33:22.277Z,5.53
2023-04-01T12:35:48.935Z,3.15
2023-04-01T12:38:16.174Z,4.68
2023-04-01T12:40:42.898Z,3.97
2023-04-01T12:43:09.617Z,3.35
2023-04-01T12:45:37.256Z,3.08
2023-04-01T12:48:04.000Z,2.90
2023-04-01T12:50:30.749Z,4.47
2023-04-01T12:52:57.559Z,4.25
2023-04-01T12:55:24.155Z,3.35
2023-04-01T12:57:50.769Z,2.90
2023-04-01T13:00:17.392Z,3.65
2023-04-01T13:02:47.318Z,2.28
2023-04-01T13:05:14.058Z,3.40
2023-04-01T13:07:40.694Z,3.13
2023-04-01T13:10:07.412Z,3.83
2023-04-01T13:12:34.036Z,3.92
2023-04-01T13:15:00.718Z,3.30
2023-04-01T13:17:27.592Z,2.97
2023-04-01T13:20:04.912Z,3.50
2023-04-01T13:22:32.536Z,3.65
2023-04-01T13:24:59.766Z,3.55
2023-04-01T13:27:26.340Z,3.15
2023-04-01T13:29:53.022Z,3.42
2023-04-01T13:32:20.088Z,3.00
2023-04-01T13:34:48.588Z,4.28
2023-04-01T13:37:15.199Z,3.30
2023-04-01T13:39:41.770Z,2.47
2023-04-01T13:42:08.441Z,2.10
2023-04-01T13:44:35.050Z,3.53
2023-04-01T13:47:02.750Z,2.65
2023-04-01T13:49:29.346Z,4.28
2023-04-01T13:51:55.929Z,4.05
2023-04-01T13:54:22.612Z,3.33
2023-04-01T13:56:49.181Z,2.60
2023-04-01T13:59:15.795Z,2.03
2023-04-01T14:01:42.803Z,3.20
2023-04-01T14:04:09.689Z,2.47
2023-04-01T14:06:36.682Z,3.75
2023-04-01T14:09:03.890Z,2.75
2023-04-01T14:11:30.624Z,2.85
2023-04-01T14:13:57.218Z,2.63
2023-04-01T14:16:23.852Z,2.10
2023-04-01T14:18:50.796Z,2.75
2023-04-01T14:21:17.569Z,2.65
2023-04-01T14:23:44.972Z,2.45
2023-04-01T14:26:11.660Z,2.80
2023-04-01T14:28:38.415Z,2.72
2023-04-01T14:31:04.981Z,2.33
2023-04-01T14:33:31.580Z,2.22
2023-04-01T14:35:58.237Z,2.63
2023-04-01T14:38:26.007Z,2.40
2023-04-01T14:40:52.622Z,1.88
2023-04-01T14:43:19.564Z,2.25
2023-04-01T14:45:46.297Z,1.85
2023-04-01T14:48:13.016Z,1.98
2023-04-01T14:50:39.720Z,2.22
2023-04-01T14:53:06.433Z,3.60
2023-04-01T14:55:33.509Z,3.05
2023-04-01T14:58:01.036Z,4.07
2023-04-01T15:00:27.634Z,3.10
2023-04-01T15:02:54.255Z,2.85
2023-04-01T15:05:21.138Z,2.78
2023-04-01T15:07:47.819Z,3.42
2023-04-01T15:10:20.674Z,3.90
2023-04-01T15:12:47.494Z,3.72
2023-04-01T15:15:14.104Z,4.57
2023-04-01T15:17:40.716Z,3.72
2023-04-01T15:20:07.329Z,5.38
2023-04-01T15:22:34.014Z,3.80
2023-04-01T15:25:00.748Z,4.72
2023-04-01T15:27:27.367Z,3.83
2023-04-01T15:29:54.091Z,3.33
2023-04-01T15:32:20.834Z,3.72
2023-04-01T15:34:47.520Z,3.85
2023-04-01T15:37:14.118Z,4.47
2023-04-01T15:39:40.800Z,4.60
2023-04-01T15:42:07.710Z,4.25
2023-04-01T15:44:34.496Z,3.55
2023-04-01T15:47:01.172Z,3.08
2023-04-01T15:49:27.772Z,3.50
2023-04-01T15:51:54.334Z,4.60
2023-04-01T15:54:21.122Z,3.88
2023-04-01T15:56:48.104Z,3.67
2023-04-01T15:59:14.878Z,3.88
2023-04-01T16:01:41.623Z,4.10
2023-04-01T16:04:08.484Z,5.55
2023-04-01T16:06:35.368Z,4.07
2023-04-01T16:09:02.290Z,4.15
2023-04-01T16:11:28.857Z,5.45
2023-04-01T16:13:55.512Z,4.82
2023-04-01T16:16:22.207Z,4.90
2023-04-01T16:18:49.653Z,5.53
2023-04-01T16:21:16.555Z,5.18
2023-04-01T16:23:43.137Z,4.35
2023-04-01T16:26:09.739Z,4.90
2023-04-01T16:28:36.385Z,3.97
2023-04-01T16:31:03.052Z,3.72
2023-04-01T16:33:29.761Z,4.80
2023-04-01T16:35:56.975Z,4.75
2023-04-01T16:38:24.294Z,4.40
2023-04-01T16:40:50.939Z,3.50
2023-04-01T16:43:17.741Z,3.95
2023-04-01T16:45:45.348Z,3.58
2023-04-01T16:48:12.029Z,4.38
2023-04-01T16:50:38.693Z,4.43
2023-04-01T16:53:05.358Z,4.68
2023-04-01T16:55:31.933Z,5.50
2023-04-01T16:57:59.545Z,4.38
2023-04-01T17:00:26.201Z,5.57
2023-04-01T17:02:52.863Z,4.93
2023-04-01T17:05:19.549Z,4.72
2023-04-01T17:07:46.693Z,4.05
2023-04-01T17:10:13.300Z,4.80
2023-04-01T17:12:40.211Z,3.55
2023-04-01T17:15:06.853Z,4.38
2023-04-01T17:17:33.652Z,4.93
2023-04-01T17:20:00.322Z,5.70
2023-04-01T17:22:28.070Z,3.47
2023-04-01T17:24:54.660Z,3.50
2023-04-01T17:27:21.603Z,3.75
2023-04-01T17:29:48.343Z,3.05
2023-04-01T17:32:14.938Z,3.22
2023-04-01T17:34:41.953Z,3.28
2023-04-01T17:37:10.537Z,3.35
2023-04-01T17:39:37.602Z,4.43
2023-04-01T17:42:04.530Z,4.03
2023-04-01T17:44:31.320Z,3.30
2023-04-01T17:46:57.966Z,2.85
2023-04-01T17:52:05.880Z,3.90
2023-04-01T17:54:32.630Z,3.88
2023-04-01T17:56:59.605Z,3.70
2023-04-01T17:59:26.648Z,4.32
2023-04-01T18:01:56.490Z,3.85
2023-04-01T18:04:23.243Z,3.85
2023-04-01T18:06:49.875Z,3.75
2023-04-01T18:09:16.680Z,3.97
2023-04-01T18:11:43.356Z,4.32
2023-04-01T18:14:10.614Z,5.25
2023-04-01T18:16:37.828Z,3.67
2023-04-01T18:19:10.931Z,4.03
2023-04-01T18:21:38.192Z,3.65
2023-04-01T18:24:04.952Z,4.60
2023-04-01T18:26:31.734Z,2.95
2023-04-01T18:28:59.893Z,3.22
2023-04-01T18:31:26.720Z,2.90
2023-04-01T18:33:55.483Z,3.85
2023-04-01T18:36:22.806Z,4.22
2023-04-01T18:38:49.417Z,3.35
2023-04-01T18:41:16.208Z,4.13
2023-04-01T18:43:42.865Z,4.00
2023-04-01T18:46:10.491Z,3.45
2023-04-01T18:48:37.270Z,3.22
2023-04-01T18:51:03.862Z,3.90
2023-04-01T18:53:30.904Z,3.55
2023-04-01T18:55:57.718Z,4.55
2023-04-01T18:58:24.428Z,3.25
2023-04-01T19:00:51.830Z,3.92
2023-04-01T19:03:18.520Z,3.65
2023-04-01T19:05:45.526Z,3.72
2023-04-01T19:08:12.126Z,2.55
2023-04-01T19:10:38.890Z,3.03
2023-04-01T19:13:05.636Z,3.15
2023-04-01T19:15:32.306Z,2.85
2023-04-01T19:17:59.051Z,3.28
2023-04-01T19:20:25.804Z,2.80
2023-04-01T19:22:52.505Z,2.05
2023-04-01T19:25:19.619Z,2.53
2023-04-01T19:27:47.057Z,2.65
2023-04-01T19:30:13.819Z,2.50
2023-04-01T19:32:40.561Z,3.20
2023-04-01T19:35:07.324Z,2.88
2023-04-01T19:37:34.045Z,2.63
2023-04-01T19:40:00.952Z,3.58
2023-04-01T19:42:27.662Z,2.60
2023-04-01T19:44:54.402Z,2.83
2023-04-01T19:47:21.184Z,3.20
2023-04-01T19:49:48.019Z,3.03
2023-04-01T19:52:14.648Z,2.70
2023-04-01T19:54:41.543Z,3.38
2023-04-01T19:57:08.454Z,3.85
2023-04-01T19:59:35.182Z,3.25
2023-04-01T20:02:01.907Z,5.05
2023-04-01T20:04:28.644Z,3.15
2023-04-01T20:06:55.713Z,3.35
2023-04-01T20:09:22.562Z,3.60
2023-04-01T20:11:49.252Z,3.85
2023-04-01T20:14:16.213Z,3.65
2023-04-01T20:16:42.948Z,2.78
2023-04-01T20:19:09.672Z,2.25
2023-04-01T20:21:36.445Z,2.60
2023-04-01T20:24:03.108Z,3.03
2023-04-01T20:26:29.836Z,2.05
2023-04-01T20:28:56.513Z,3.10
2023-04-01T20:31:26.289Z,2.33
2023-04-01T20:33:54.913Z,2.33
2023-04-01T20:36:21.552Z,2.33
2023-04-01T20:38:48.272Z,3.80
2023-04-01T20:41:15.503Z,1.90
2023-04-01T20:43:42.758Z,3.60
2023-04-01T20:46:09.428Z,2.55
2023-04-01T20:48:36.172Z,3.45
2023-04-01T20:51:02.838Z,3.30
2023-04-01T20:53:29.429Z,2.80
2023-04-01T20:55:56.251Z,2.63
2023-04-01T20:58:22.970Z,2.08
2023-04-01T21:00:49.627Z,2.97
2023-04-01T21:03:16.463Z,2.10
2023-04-01T21:05:43.126Z,3.45
2023-04-01T21:08:09.922Z,2.30
2023-04-01T21:10:36.593Z,2.67
2023-04-01T21:13:03.246Z,2.53
2023-04-01T21:15:30.011Z,2.72
2023-04-01T21:17:56.691Z,3.17
2023-04-01T21:20:23.404Z,3.05
2023-04-01T21:22:50.093Z,1.85
2023-04-01T21:25:16.848Z,2.63
2023-04-01T21:27:43.497Z,1.98
2023-04-01T21:30:10.517Z,2.08
2023-04-01T21:32:37.213Z,2.90
2023-04-01T21:35:03.985Z,2.28
2023-04-01T21:37:30.659Z,2.17
2023-04-01T21:39:57.437Z,2.33
2023-04-01T21:42:24.162Z,2.08
2023-04-01T21:44:50.958Z,3.58
2023-04-01T21:47:17.683Z,1.65
2023-04-01T21:49:47.743Z,2.65
2023-04-01T21:52:14.553Z,2.30
2023-04-01T21:54:41.315Z,1.73
2023-04-01T21:57:08.209Z,1.92
2023-04-01T21:59:35.193Z,1.67
2023-04-01T22:02:02.080Z,1.88
2023-04-01T22:04:28.947Z,1.98
2023-04-01T22:06:58.281Z,2.08
2023-04-01T22:09:25.015Z,2.85
2023-04-01T22:11:55.505Z,2.13
2023-04-01T22:14:22.604Z,2.57
2023-04-01T22:16:51.886Z,2.08
2023-04-01T22:19:26.247Z,3.05
2023-04-01T22:22:02.382Z,2.25
2023-04-01T22:24:29.398Z,2.85
2023-04-01T22:26:58.228Z,1.42
2023-04-01T22:29:26.337Z,1.48
2023-04-01T22:31:53.166Z,1.63
2023-04-01T22:34:20.079Z,2.13
2023-04-01T22:36:46.811Z,1.85
2023-04-01T22:39:13.511Z,2.10
2023-04-01T22:41:40.243Z,1.67
2023-04-01T22:44:06.911Z,1.92
2023-04-01T22:46:33.681Z,1.73
2023-04-01T22:49:00.509Z,1.48
2023-04-01T22:51:27.166Z,1.40
2023-04-01T22:53:54.311Z,2.17
2023-04-01T22:56:21.404Z,1.60
2023-04-01T22:58:48.103Z,2.00
2023-04-01T23:01:14.877Z,1.40
2023-04-01T23:03:41.673Z,1.98
2023-04-01T23:06:08.490Z,2.15
2023-04-01T23:08:35.089Z,1.50
2023-04-01T23:11:02.809Z,1.60
2023-04-01T23:13:29.887Z,1.90
2023-04-01T23:15:56.547Z,1.70
2023-04-01T23:18:23.473Z,2.13
2023-04-01T23:20:50.196Z,1.80
2023-04-01T23:23:19.969Z,1.67
2023-04-01T23:25:46.745Z,1.85
2023-04-01T23:28:13.535Z,1.45
2023-04-01T23:30:40.519Z,1.85
2023-04-01T23:33:07.421Z,2.20
2023-04-01T23:35:34.489Z,2.08
2023-04-01T23:38:01.562Z,2.03
2023-04-01T23:40:28.259Z,1.88
2023-04-01T23:42:54.980Z,1.63
2023-04-01T23:45:21.924Z,1.60
2023-04-01T23:47:50.494Z,1.73
2023-04-01T23:50:17.305Z,1.70
2023-04-01T23:52:43.945Z,1.65
2023-04-01T23:55:10.693Z,1.77
2023-04-01T23:57:40.484Z,2.17
